sensor_id;sensor_type;location;lat;lon;timestamp;temperature;humidity
15717;DHT22;7960;50.908;4.204;2023-07-31T00:01:20;16.90;99.90
15717;DHT22;7960;50.908;4.204;2023-07-31T00:03:47;16.90;99.90
15717;DHT22;7960;50.908;4.204;2023-07-31T00:06:13;16.90;99.90
15717;DHT22;7960;50.908;4.204;2023-07-31T00:08:40;16.90;99.90
15717;DHT22;7960;50.908;4.204;2023-07-31T00:11:08;16.90;99.90
15717;DHT22;7960;50.908;4.204;2023-07-31T00:13:35;16.90;99.90
15717;DHT22;7960;50.908;4.204;2023-07-31T00:16:02;16.90;99.90
15717;DHT22;7960;50.908;4.204;2023-07-31T00:18:29;17.00;99.90
15717;DHT22;7960;50.908;4.204;2023-07-31T00:20:56;17.00;99.90
15717;DHT22;7960;50.908;4.204;2023-07-31T00:23:22;17.00;99.90
15717;DHT22;7960;50.908;4.204;2023-07-31T00:25:49;16.90;99.90
15717;DHT22;7960;50.908;4.204;2023-07-31T00:28:17;16.90;99.90
15717;DHT22;7960;50.908;4.204;2023-07-31T00:30:44;16.90;99.90
15717;DHT22;7960;50.908;4.204;2023-07-31T00:33:11;16.90;99.90
15717;DHT22;7960;50.908;4.204;2023-07-31T00:35:38;16.90;99.90
15717;DHT22;7960;50.908;4.204;2023-07-31T00:38:05;16.90;99.90
15717;DHT22;7960;50.908;4.204;2023-07-31T00:40:34;16.90;99.90
15717;DHT22;7960;50.908;4.204;2023-07-31T00:43:02;16.90;99.90
15717;DHT22;7960;50.908;4.204;2023-07-31T00:45:31;16.90;99.90
15717;DHT22;7960;50.908;4.204;2023-07-31T00:47:59;16.80;99.90
15717;DHT22;7960;50.908;4.204;2023-07-31T00:50:27;16.90;99.90
15717;DHT22;7960;50.908;4.204;2023-07-31T00:52:54;16.90;99.90
15717;DHT22;7960;50.908;4.204;2023-07-31T00:55:21;16.90;99.90
15717;DHT22;7960;50.908;4.204;2023-07-31T00:57:48;16.90;99.90
15717;DHT22;7960;50.908;4.204;2023-07-31T01:00:17;16.90;99.90
15717;DHT22;7960;50.908;4.204;2023-07-31T01:02:45;17.00;99.90
15717;DHT22;7960;50.908;4.204;2023-07-31T01:05:12;16.90;99.90
15717;DHT22;7960;50.908;4.204;2023-07-31T01:07:45;16.90;99.90
15717;DHT22;7960;50.908;4.204;2023-07-31T01:10:18;17.00;99.90
15717;DHT22;7960;50.908;4.204;2023-07-31T01:12:48;17.00;99.90
15717;DHT22;7960;50.908;4.204;2023-07-31T01:15:14;17.00;99.90
15717;DHT22;7960;50.908;4.204;2023-07-31T01:17:44;17.00;99.90
15717;DHT22;7960;50.908;4.204;2023-07-31T01:20:15;17.00;99.90
15717;DHT22;7960;50.908;4.204;2023-07-31T01:23:04;17.00;99.90
15717;DHT22;7960;50.908;4.204;2023-07-31T01:25:54;17.00;99.90
15717;DHT22;7960;50.908;4.204;2023-07-31T01:28:25;17.00;99.90
15717;DHT22;7960;50.908;4.204;2023-07-31T01:30:55;17.10;99.90
15717;DHT22;7960;50.908;4.204;2023-07-31T01:33:25;17.10;99.90
15717;DHT22;7960;50.908;4.204;2023-07-31T01:35:52;17.00;99.90
15717;DHT22;7960;50.908;4.204;2023-07-31T01:38:21;17.10;99.90
15717;DHT22;7960;50.908;4.204;2023-07-31T01:40:52;17.10;99.90
15717;DHT22;7960;50.908;4.204;2023-07-31T01:43:19;17.10;99.90
15717;DHT22;7960;50.908;4.204;2023-07-31T01:45:46;17.10;99.90
15717;DHT22;7960;50.908;4.204;2023-07-31T01:48:13;17.10;99.90
15717;DHT22;7960;50.908;4.204;2023-07-31T01:50:40;17.20;99.90
15717;DHT22;7960;50.908;4.204;2023-07-31T01:53:07;17.10;99.90
15717;DHT22;7960;50.908;4.204;2023-07-31T01:55:34;17.20;99.90
15717;DHT22;7960;50.908;4.204;2023-07-31T01:58:02;17.10;99.90
15717;DHT22;7960;50.908;4.204;2023-07-31T02:00:29;17.20;99.90
15717;DHT22;7960;50.908;4.204;2023-07-31T02:02:56;17.10;99.90
15717;DHT22;7960;50.908;4.204;2023-07-31T02:05:22;17.10;99.90
15717;DHT22;7960;50.908;4.204;2023-07-31T02:07:49;17.10;99.90
15717;DHT22;7960;50.908;4.204;2023-07-31T02:10:16;17.10;99.90
15717;DHT22;7960;50.908;4.204;2023-07-31T02:12:43;17.10;99.90
15717;DHT22;7960;50.908;4.204;2023-07-31T02:15:11;17.20;99.90
15717;DHT22;7960;50.908;4.204;2023-07-31T02:17:38;17.20;99.90
15717;DHT22;7960;50.908;4.204;2023-07-31T02:20:06;17.20;99.90
15717;DHT22;7960;50.908;4.204;2023-07-31T02:22:33;17.20;99.90
15717;DHT22;7960;50.908;4.204;2023-07-31T02:25:00;17.20;99.90
15717;DHT22;7960;50.908;4.204;2023-07-31T02:27:26;17.20;99.90
15717;DHT22;7960;50.908;4.204;2023-07-31T02:29:53;17.20;99.90
15717;DHT22;7960;50.908;4.204;2023-07-31T02:32:22;17.20;99.90
15717;DHT22;7960;50.908;4.204;2023-07-31T02:34:49;17.20;99.90
15717;DHT22;7960;50.908;4.204;2023-07-31T02:37:15;17.20;99.90
15717;DHT22;7960;50.908;4.204;2023-07-31T02:39:42;17.20;99.90
15717;DHT22;7960;50.908;4.204;2023-07-31T02:42:09;17.20;99.90
15717;DHT22;7960;50.908;4.204;2023-07-31T02:44:36;17.20;99.90
15717;DHT22;7960;50.908;4.204;2023-07-31T02:47:03;17.20;99.90
15717;DHT22;7960;50.908;4.204;2023-07-31T02:49:31;17.20;99.90
15717;DHT22;7960;50.908;4.204;2023-07-31T02:51:58;17.10;99.90
15717;DHT22;7960;50.908;4.204;2023-07-31T02:54:25;17.10;99.90
15717;DHT22;7960;50.908;4.204;2023-07-31T02:56:52;17.20;99.90
15717;DHT22;7960;50.908;4.204;2023-07-31T02:59:19;17.20;99.90
15717;DHT22;7960;50.908;4.204;2023-07-31T03:01:46;17.10;99.90
15717;DHT22;7960;50.908;4.204;2023-07-31T03:04:13;17.10;99.90
15717;DHT22;7960;50.908;4.204;2023-07-31T03:06:42;17.10;99.90
15717;DHT22;7960;50.908;4.204;2023-07-31T03:09:08;17.00;99.90
15717;DHT22;7960;50.908;4.204;2023-07-31T03:11:35;17.10;99.90
15717;DHT22;7960;50.908;4.204;2023-07-31T03:14:02;17.00;99.90
15717;DHT22;7960;50.908;4.204;2023-07-31T03:16:29;17.00;99.90
15717;DHT22;7960;50.908;4.204;2023-07-31T03:18:56;17.10;99.90
15717;DHT22;7960;50.908;4.204;2023-07-31T03:21:23;17.00;99.90
15717;DHT22;7960;50.908;4.204;2023-07-31T03:23:51;16.90;99.90
15717;DHT22;7960;50.908;4.204;2023-07-31T03:26:18;16.90;99.90
15717;DHT22;7960;50.908;4.204;2023-07-31T03:28:45;16.90;99.90
15717;DHT22;7960;50.908;4.204;2023-07-31T03:31:12;16.90;99.90
15717;DHT22;7960;50.908;4.204;2023-07-31T03:33:38;16.90;99.90
15717;DHT22;7960;50.908;4.204;2023-07-31T03:36:05;16.90;99.90
15717;DHT22;7960;50.908;4.204;2023-07-31T03:38:33;16.80;99.90
15717;DHT22;7960;50.908;4.204;2023-07-31T03:41:01;16.80;99.90
15717;DHT22;7960;50.908;4.204;2023-07-31T03:43:28;16.90;99.90
15717;DHT22;7960;50.908;4.204;2023-07-31T03:45:55;16.90;99.90
15717;DHT22;7960;50.908;4.204;2023-07-31T03:48:22;16.90;99.90
15717;DHT22;7960;50.908;4.204;2023-07-31T03:50:48;16.90;99.90
15717;DHT22;7960;50.908;4.204;2023-07-31T03:53:15;16.90;99.90
15717;DHT22;7960;50.908;4.204;2023-07-31T03:55:42;16.90;99.90
15717;DHT22;7960;50.908;4.204;2023-07-31T03:58:10;16.90;99.90
15717;DHT22;7960;50.908;4.204;2023-07-31T04:00:37;16.80;99.90
15717;DHT22;7960;50.908;4.204;2023-07-31T04:03:04;16.90;99.90
15717;DHT22;7960;50.908;4.204;2023-07-31T04:05:31;16.90;99.90
15717;DHT22;7960;50.908;4.204;2023-07-31T04:07:58;16.80;99.90
15717;DHT22;7960;50.908;4.204;2023-07-31T04:10:25;16.80;99.90
15717;DHT22;7960;50.908;4.204;2023-07-31T04:12:52;16.80;99.90
15717;DHT22;7960;50.908;4.204;2023-07-31T04:15:20;16.70;99.90
15717;DHT22;7960;50.908;4.204;2023-07-31T04:17:47;16.70;99.90
15717;DHT22;7960;50.908;4.204;2023-07-31T04:20:14;16.70;99.90
15717;DHT22;7960;50.908;4.204;2023-07-31T04:22:41;16.70;99.90
15717;DHT22;7960;50.908;4.204;2023-07-31T04:25:08;16.70;99.90
15717;DHT22;7960;50.908;4.204;2023-07-31T04:27:35;16.70;99.90
15717;DHT22;7960;50.908;4.204;2023-07-31T04:30:02;16.70;99.90
15717;DHT22;7960;50.908;4.204;2023-07-31T04:32:30;16.70;99.90
15717;DHT22;7960;50.908;4.204;2023-07-31T04:34:57;16.70;99.90
15717;DHT22;7960;50.908;4.204;2023-07-31T04:37:24;16.70;99.90
15717;DHT22;7960;50.908;4.204;2023-07-31T04:39:51;16.70;99.90
15717;DHT22;7960;50.908;4.204;2023-07-31T04:42:17;16.70;99.90
15717;DHT22;7960;50.908;4.204;2023-07-31T04:44:46;16.70;99.90
15717;DHT22;7960;50.908;4.204;2023-07-31T04:47:13;16.60;99.90
15717;DHT22;7960;50.908;4.204;2023-07-31T04:49:41;16.60;99.90
15717;DHT22;7960;50.908;4.204;2023-07-31T04:52:08;16.60;99.90
15717;DHT22;7960;50.908;4.204;2023-07-31T04:54:34;16.70;99.90
15717;DHT22;7960;50.908;4.204;2023-07-31T04:57:01;16.70;99.90
15717;DHT22;7960;50.908;4.204;2023-07-31T04:59:28;16.60;99.90
15717;DHT22;7960;50.908;4.204;2023-07-31T05:01:57;16.60;99.90
15717;DHT22;7960;50.908;4.204;2023-07-31T05:04:23;16.60;99.90
15717;DHT22;7960;50.908;4.204;2023-07-31T05:06:52;16.60;99.90
15717;DHT22;7960;50.908;4.204;2023-07-31T05:09:18;16.50;99.90
15717;DHT22;7960;50.908;4.204;2023-07-31T05:11:45;16.60;99.90
15717;DHT22;7960;50.908;4.204;2023-07-31T05:14:13;16.60;99.90
15717;DHT22;7960;50.908;4.204;2023-07-31T05:16:39;16.50;99.90
15717;DHT22;7960;50.908;4.204;2023-07-31T05:19:06;16.50;99.90
15717;DHT22;7960;50.908;4.204;2023-07-31T05:21:33;16.50;99.90
15717;DHT22;7960;50.908;4.204;2023-07-31T05:24:01;16.50;99.90
15717;DHT22;7960;50.908;4.204;2023-07-31T05:26:28;16.50;99.90
15717;DHT22;7960;50.908;4.204;2023-07-31T05:28:55;16.50;99.90
15717;DHT22;7960;50.908;4.204;2023-07-31T05:31:21;16.50;99.90
15717;DHT22;7960;50.908;4.204;2023-07-31T05:33:48;16.50;99.90
15717;DHT22;7960;50.908;4.204;2023-07-31T05:36:16;16.50;99.90
15717;DHT22;7960;50.908;4.204;2023-07-31T05:38:43;16.50;99.90
15717;DHT22;7960;50.908;4.204;2023-07-31T05:41:11;16.50;99.90
15717;DHT22;7960;50.908;4.204;2023-07-31T05:43:38;16.50;99.90
15717;DHT22;7960;50.908;4.204;2023-07-31T05:46:06;16.50;99.90
15717;DHT22;7960;50.908;4.204;2023-07-31T05:48:34;16.50;99.90
15717;DHT22;7960;50.908;4.204;2023-07-31T05:51:01;16.40;99.90
15717;DHT22;7960;50.908;4.204;2023-07-31T05:53:28;16.50;99.90
15717;DHT22;7960;50.908;4.204;2023-07-31T05:55:55;16.50;99.90
15717;DHT22;7960;50.908;4.204;2023-07-31T05:58:23;16.50;99.90
15717;DHT22;7960;50.908;4.204;2023-07-31T06:00:50;16.50;99.90
15717;DHT22;7960;50.908;4.204;2023-07-31T06:03:17;16.50;99.90
15717;DHT22;7960;50.908;4.204;2023-07-31T06:05:43;16.50;99.90
15717;DHT22;7960;50.908;4.204;2023-07-31T06:08:10;16.40;99.90
15717;DHT22;7960;50.908;4.204;2023-07-31T06:10:37;16.50;99.90
15717;DHT22;7960;50.908;4.204;2023-07-31T06:13:04;16.50;99.90
15717;DHT22;7960;50.908;4.204;2023-07-31T06:15:32;16.50;99.90
15717;DHT22;7960;50.908;4.204;2023-07-31T06:17:59;16.50;99.90
15717;DHT22;7960;50.908;4.204;2023-07-31T06:20:27;16.50;99.90
15717;DHT22;7960;50.908;4.204;2023-07-31T06:22:54;16.50;99.90
15717;DHT22;7960;50.908;4.204;2023-07-31T06:25:21;16.50;99.90
15717;DHT22;7960;50.908;4.204;2023-07-31T06:27:48;16.60;99.90
15717;DHT22;7960;50.908;4.204;2023-07-31T06:30:15;16.60;99.90
15717;DHT22;7960;50.908;4.204;2023-07-31T06:32:43;16.60;99.90
15717;DHT22;7960;50.908;4.204;2023-07-31T06:35:10;16.60;99.90
15717;DHT22;7960;50.908;4.204;2023-07-31T06:37:37;16.60;99.90
15717;DHT22;7960;50.908;4.204;2023-07-31T06:40:06;16.60;99.90
15717;DHT22;7960;50.908;4.204;2023-07-31T06:42:34;16.60;99.90
15717;DHT22;7960;50.908;4.204;2023-07-31T06:45:01;16.60;99.90
15717;DHT22;7960;50.908;4.204;2023-07-31T06:47:28;16.70;99.90
15717;DHT22;7960;50.908;4.204;2023-07-31T06:49:57;16.70;99.90
15717;DHT22;7960;50.908;4.204;2023-07-31T06:52:23;16.70;99.90
15717;DHT22;7960;50.908;4.204;2023-07-31T06:55:01;16.70;99.90
15717;DHT22;7960;50.908;4.204;2023-07-31T06:57:29;16.80;99.90
15717;DHT22;7960;50.908;4.204;2023-07-31T06:59:56;16.80;99.90
15717;DHT22;7960;50.908;4.204;2023-07-31T07:02:22;16.80;99.90
15717;DHT22;7960;50.908;4.204;2023-07-31T07:04:50;16.90;99.90
15717;DHT22;7960;50.908;4.204;2023-07-31T07:07:18;16.90;99.90
15717;DHT22;7960;50.908;4.204;2023-07-31T07:09:45;16.90;99.90
15717;DHT22;7960;50.908;4.204;2023-07-31T07:12:12;16.90;99.90
15717;DHT22;7960;50.908;4.204;2023-07-31T07:14:39;17.00;99.90
15717;DHT22;7960;50.908;4.204;2023-07-31T07:17:06;17.10;99.90
15717;DHT22;7960;50.908;4.204;2023-07-31T07:19:33;17.10;99.90
15717;DHT22;7960;50.908;4.204;2023-07-31T07:21:59;17.10;99.90
15717;DHT22;7960;50.908;4.204;2023-07-31T07:24:28;17.10;99.90
15717;DHT22;7960;50.908;4.204;2023-07-31T07:26:55;17.00;99.90
15717;DHT22;7960;50.908;4.204;2023-07-31T07:29:22;17.10;99.90
15717;DHT22;7960;50.908;4.204;2023-07-31T07:31:49;17.10;99.90
15717;DHT22;7960;50.908;4.204;2023-07-31T07:34:16;17.10;99.90
15717;DHT22;7960;50.908;4.204;2023-07-31T07:36:43;17.10;99.90
15717;DHT22;7960;50.908;4.204;2023-07-31T07:39:10;17.20;99.90
15717;DHT22;7960;50.908;4.204;2023-07-31T07:41:38;17.20;99.90
15717;DHT22;7960;50.908;4.204;2023-07-31T07:44:05;17.20;99.90
15717;DHT22;7960;50.908;4.204;2023-07-31T07:46:32;17.20;99.90
15717;DHT22;7960;50.908;4.204;2023-07-31T07:48:59;17.20;99.90
15717;DHT22;7960;50.908;4.204;2023-07-31T07:51:26;17.30;99.90
15717;DHT22;7960;50.908;4.204;2023-07-31T07:53:53;17.30;99.90
15717;DHT22;7960;50.908;4.204;2023-07-31T07:56:20;17.30;99.90
15717;DHT22;7960;50.908;4.204;2023-07-31T07:58:50;17.40;99.90
15717;DHT22;7960;50.908;4.204;2023-07-31T08:01:17;17.40;99.90
15717;DHT22;7960;50.908;4.204;2023-07-31T08:03:43;17.50;99.90
15717;DHT22;7960;50.908;4.204;2023-07-31T08:06:10;17.50;99.90
15717;DHT22;7960;50.908;4.204;2023-07-31T08:08:37;17.50;99.90
15717;DHT22;7960;50.908;4.204;2023-07-31T08:11:05;17.50;99.90
15717;DHT22;7960;50.908;4.204;2023-07-31T08:13:31;17.50;99.90
15717;DHT22;7960;50.908;4.204;2023-07-31T08:16:00;17.50;99.90
15717;DHT22;7960;50.908;4.204;2023-07-31T08:18:26;17.50;99.90
15717;DHT22;7960;50.908;4.204;2023-07-31T08:20:53;17.40;99.90
15717;DHT22;7960;50.908;4.204;2023-07-31T08:23:20;17.40;99.90
15717;DHT22;7960;50.908;4.204;2023-07-31T08:25:47;17.40;99.90
15717;DHT22;7960;50.908;4.204;2023-07-31T08:28:15;17.40;99.90
15717;DHT22;7960;50.908;4.204;2023-07-31T08:30:42;17.40;99.90
15717;DHT22;7960;50.908;4.204;2023-07-31T08:33:10;17.40;99.90
15717;DHT22;7960;50.908;4.204;2023-07-31T08:35:37;17.40;99.90
15717;DHT22;7960;50.908;4.204;2023-07-31T08:38:04;17.30;99.90
15717;DHT22;7960;50.908;4.204;2023-07-31T08:40:31;17.30;99.90
15717;DHT22;7960;50.908;4.204;2023-07-31T08:42:58;17.40;99.90
15717;DHT22;7960;50.908;4.204;2023-07-31T08:45:28;17.40;99.90
15717;DHT22;7960;50.908;4.204;2023-07-31T08:47:56;17.40;99.90
15717;DHT22;7960;50.908;4.204;2023-07-31T08:50:24;17.30;99.90
15717;DHT22;7960;50.908;4.204;2023-07-31T08:52:51;17.40;99.90
15717;DHT22;7960;50.908;4.204;2023-07-31T08:55:19;17.40;99.90
15717;DHT22;7960;50.908;4.204;2023-07-31T08:57:51;17.40;99.90
15717;DHT22;7960;50.908;4.204;2023-07-31T09:00:20;17.40;99.90
15717;DHT22;7960;50.908;4.204;2023-07-31T09:02:54;17.40;99.90
15717;DHT22;7960;50.908;4.204;2023-07-31T09:05:21;17.50;99.90
15717;DHT22;7960;50.908;4.204;2023-07-31T09:07:51;17.50;99.90
15717;DHT22;7960;50.908;4.204;2023-07-31T09:10:18;17.50;99.90
15717;DHT22;7960;50.908;4.204;2023-07-31T09:12:45;17.50;99.90
15717;DHT22;7960;50.908;4.204;2023-07-31T09:15:13;17.50;99.90
15717;DHT22;7960;50.908;4.204;2023-07-31T09:17:40;17.60;99.90
15717;DHT22;7960;50.908;4.204;2023-07-31T09:20:14;17.60;99.90
15717;DHT22;7960;50.908;4.204;2023-07-31T09:22:42;17.70;99.90
15717;DHT22;7960;50.908;4.204;2023-07-31T09:25:17;17.70;99.90
15717;DHT22;7960;50.908;4.204;2023-07-31T09:27:49;17.70;99.90
15717;DHT22;7960;50.908;4.204;2023-07-31T09:30:17;17.60;99.90
15717;DHT22;7960;50.908;4.204;2023-07-31T09:32:45;17.60;99.90
15717;DHT22;7960;50.908;4.204;2023-07-31T09:35:22;17.60;99.90
15717;DHT22;7960;50.908;4.204;2023-07-31T09:37:50;17.50;99.90
15717;DHT22;7960;50.908;4.204;2023-07-31T09:40:29;17.50;99.90
15717;DHT22;7960;50.908;4.204;2023-07-31T09:42:57;17.50;99.90
15717;DHT22;7960;50.908;4.204;2023-07-31T09:45:25;17.50;99.90
15717;DHT22;7960;50.908;4.204;2023-07-31T09:47:52;17.50;99.90
15717;DHT22;7960;50.908;4.204;2023-07-31T09:50:20;17.50;99.90
15717;DHT22;7960;50.908;4.204;2023-07-31T09:52:48;17.40;99.90
15717;DHT22;7960;50.908;4.204;2023-07-31T09:55:15;17.40;99.90
15717;DHT22;7960;50.908;4.204;2023-07-31T09:57:45;17.40;99.90
15717;DHT22;7960;50.908;4.204;2023-07-31T10:00:13;17.40;99.90
15717;DHT22;7960;50.908;4.204;2023-07-31T10:02:41;17.40;99.90
15717;DHT22;7960;50.908;4.204;2023-07-31T10:05:13;17.40;99.90
15717;DHT22;7960;50.908;4.204;2023-07-31T10:07:42;17.40;99.90
15717;DHT22;7960;50.908;4.204;2023-07-31T10:10:10;17.40;99.90
15717;DHT22;7960;50.908;4.204;2023-07-31T10:12:38;17.50;99.90
15717;DHT22;7960;50.908;4.204;2023-07-31T10:15:08;17.50;99.90
15717;DHT22;7960;50.908;4.204;2023-07-31T10:17:36;17.50;99.90
15717;DHT22;7960;50.908;4.204;2023-07-31T10:20:04;17.50;99.90
15717;DHT22;7960;50.908;4.204;2023-07-31T10:22:34;17.50;99.90
15717;DHT22;7960;50.908;4.204;2023-07-31T10:25:01;17.50;99.90
15717;DHT22;7960;50.908;4.204;2023-07-31T10:27:28;17.60;99.90
15717;DHT22;7960;50.908;4.204;2023-07-31T10:29:58;17.60;99.90
15717;DHT22;7960;50.908;4.204;2023-07-31T10:32:28;17.60;99.90
15717;DHT22;7960;50.908;4.204;2023-07-31T10:34:55;17.70;99.90
15717;DHT22;7960;50.908;4.204;2023-07-31T10:37:24;17.70;99.90
15717;DHT22;7960;50.908;4.204;2023-07-31T10:39:59;17.80;99.90
15717;DHT22;7960;50.908;4.204;2023-07-31T10:42:31;17.90;99.90
15717;DHT22;7960;50.908;4.204;2023-07-31T10:45:00;18.00;99.90
15717;DHT22;7960;50.908;4.204;2023-07-31T10:47:29;18.10;99.90
15717;DHT22;7960;50.908;4.204;2023-07-31T10:50:21;18.00;99.90
15717;DHT22;7960;50.908;4.204;2023-07-31T10:52:51;18.10;99.90
15717;DHT22;7960;50.908;4.204;2023-07-31T10:55:29;18.20;99.90
15717;DHT22;7960;50.908;4.204;2023-07-31T10:57:57;18.20;99.90
15717;DHT22;7960;50.908;4.204;2023-07-31T11:00:26;18.20;99.90
15717;DHT22;7960;50.908;4.204;2023-07-31T11:03:04;18.30;99.90
15717;DHT22;7960;50.908;4.204;2023-07-31T11:05:42;18.30;99.90
15717;DHT22;7960;50.908;4.204;2023-07-31T11:08:14;18.30;99.90
15717;DHT22;7960;50.908;4.204;2023-07-31T11:10:41;18.50;99.90
15717;DHT22;7960;50.908;4.204;2023-07-31T11:13:08;18.60;99.90
15717;DHT22;7960;50.908;4.204;2023-07-31T11:15:35;18.80;99.90
15717;DHT22;7960;50.908;4.204;2023-07-31T11:18:04;18.80;99.90
15717;DHT22;7960;50.908;4.204;2023-07-31T11:20:31;18.80;99.90
15717;DHT22;7960;50.908;4.204;2023-07-31T11:23:00;18.80;99.90
15717;DHT22;7960;50.908;4.204;2023-07-31T11:25:29;18.80;99.90
15717;DHT22;7960;50.908;4.204;2023-07-31T11:27:57;18.70;99.90
15717;DHT22;7960;50.908;4.204;2023-07-31T11:30:23;18.70;99.90
15717;DHT22;7960;50.908;4.204;2023-07-31T11:32:50;18.70;99.90
15717;DHT22;7960;50.908;4.204;2023-07-31T11:35:19;18.70;99.90
15717;DHT22;7960;50.908;4.204;2023-07-31T11:37:46;18.60;99.90
15717;DHT22;7960;50.908;4.204;2023-07-31T11:40:14;18.60;99.90
15717;DHT22;7960;50.908;4.204;2023-07-31T11:42:41;18.60;99.90
15717;DHT22;7960;50.908;4.204;2023-07-31T11:45:09;18.60;99.90
15717;DHT22;7960;50.908;4.204;2023-07-31T11:47:37;18.50;99.90
15717;DHT22;7960;50.908;4.204;2023-07-31T11:50:05;18.50;99.90
15717;DHT22;7960;50.908;4.204;2023-07-31T11:52:37;18.50;99.90
15717;DHT22;7960;50.908;4.204;2023-07-31T11:55:07;18.50;99.90
15717;DHT22;7960;50.908;4.204;2023-07-31T11:57:37;18.50;99.90
15717;DHT22;7960;50.908;4.204;2023-07-31T12:00:05;18.50;99.90
15717;DHT22;7960;50.908;4.204;2023-07-31T12:02:34;18.50;99.90
15717;DHT22;7960;50.908;4.204;2023-07-31T12:05:01;18.60;99.90
15717;DHT22;7960;50.908;4.204;2023-07-31T12:07:46;18.60;99.90
15717;DHT22;7960;50.908;4.204;2023-07-31T12:10:25;18.70;99.90
15717;DHT22;7960;50.908;4.204;2023-07-31T12:12:57;18.70;99.90
15717;DHT22;7960;50.908;4.204;2023-07-31T12:15:38;18.80;99.90
15717;DHT22;7960;50.908;4.204;2023-07-31T12:18:07;18.80;99.90
15717;DHT22;7960;50.908;4.204;2023-07-31T12:20:34;18.80;99.90
15717;DHT22;7960;50.908;4.204;2023-07-31T12:23:03;18.90;99.90
15717;DHT22;7960;50.908;4.204;2023-07-31T12:25:31;18.90;99.90
15717;DHT22;7960;50.908;4.204;2023-07-31T12:28:04;18.90;99.90
15717;DHT22;7960;50.908;4.204;2023-07-31T12:30:33;18.90;99.90
15717;DHT22;7960;50.908;4.204;2023-07-31T12:33:03;19.00;99.90
15717;DHT22;7960;50.908;4.204;2023-07-31T12:35:35;19.00;99.90
15717;DHT22;7960;50.908;4.204;2023-07-31T12:38:04;19.10;99.90
15717;DHT22;7960;50.908;4.204;2023-07-31T12:40:31;19.20;99.90
15717;DHT22;7960;50.908;4.204;2023-07-31T12:42:58;19.10;99.90
15717;DHT22;7960;50.908;4.204;2023-07-31T12:45:27;19.20;99.90
15717;DHT22;7960;50.908;4.204;2023-07-31T12:47:54;19.10;99.90
15717;DHT22;7960;50.908;4.204;2023-07-31T12:50:21;19.10;99.90
15717;DHT22;7960;50.908;4.204;2023-07-31T12:52:51;19.00;99.90
15717;DHT22;7960;50.908;4.204;2023-07-31T12:55:19;19.00;99.90
15717;DHT22;7960;50.908;4.204;2023-07-31T12:57:46;19.00;99.90
15717;DHT22;7960;50.908;4.204;2023-07-31T13:00:14;19.00;99.90
15717;DHT22;7960;50.908;4.204;2023-07-31T13:02:41;19.00;99.90
15717;DHT22;7960;50.908;4.204;2023-07-31T13:05:08;18.80;99.90
15717;DHT22;7960;50.908;4.204;2023-07-31T13:07:35;18.80;99.90
15717;DHT22;7960;50.908;4.204;2023-07-31T13:10:02;18.70;99.90
15717;DHT22;7960;50.908;4.204;2023-07-31T13:12:30;18.50;99.90
15717;DHT22;7960;50.908;4.204;2023-07-31T13:14:57;18.40;99.90
15717;DHT22;7960;50.908;4.204;2023-07-31T13:17:23;18.30;99.90
15717;DHT22;7960;50.908;4.204;2023-07-31T13:19:50;18.20;99.90
15717;DHT22;7960;50.908;4.204;2023-07-31T13:22:17;18.20;99.90
15717;DHT22;7960;50.908;4.204;2023-07-31T13:24:44;18.10;99.90
15717;DHT22;7960;50.908;4.204;2023-07-31T13:27:11;18.10;99.90
15717;DHT22;7960;50.908;4.204;2023-07-31T13:29:39;17.90;99.90
15717;DHT22;7960;50.908;4.204;2023-07-31T13:32:06;17.90;99.90
15717;DHT22;7960;50.908;4.204;2023-07-31T13:34:32;17.80;99.90
15717;DHT22;7960;50.908;4.204;2023-07-31T13:36:59;17.80;99.90
15717;DHT22;7960;50.908;4.204;2023-07-31T13:39:26;17.80;99.90
15717;DHT22;7960;50.908;4.204;2023-07-31T13:41:53;17.80;99.90
15717;DHT22;7960;50.908;4.204;2023-07-31T13:44:20;17.70;99.90
15717;DHT22;7960;50.908;4.204;2023-07-31T13:46:48;17.70;99.90
15717;DHT22;7960;50.908;4.204;2023-07-31T13:49:15;17.80;99.90
15717;DHT22;7960;50.908;4.204;2023-07-31T13:51:42;17.70;99.90
15717;DHT22;7960;50.908;4.204;2023-07-31T13:54:09;17.70;99.90
15717;DHT22;7960;50.908;4.204;2023-07-31T13:56:37;17.70;99.90
15717;DHT22;7960;50.908;4.204;2023-07-31T13:59:04;17.70;99.90
15717;DHT22;7960;50.908;4.204;2023-07-31T14:01:31;17.70;99.90
15717;DHT22;7960;50.908;4.204;2023-07-31T14:03:59;17.70;99.90
15717;DHT22;7960;50.908;4.204;2023-07-31T14:06:26;17.70;99.90
15717;DHT22;7960;50.908;4.204;2023-07-31T14:08:53;17.70;99.90
15717;DHT22;7960;50.908;4.204;2023-07-31T14:11:21;17.80;99.90
15717;DHT22;7960;50.908;4.204;2023-07-31T14:13:48;17.80;99.90
15717;DHT22;7960;50.908;4.204;2023-07-31T14:16:14;17.80;99.90
15717;DHT22;7960;50.908;4.204;2023-07-31T14:18:41;17.80;99.90
15717;DHT22;7960;50.908;4.204;2023-07-31T14:21:10;17.80;99.90
15717;DHT22;7960;50.908;4.204;2023-07-31T14:23:36;17.80;99.90
15717;DHT22;7960;50.908;4.204;2023-07-31T14:26:03;17.80;99.90
15717;DHT22;7960;50.908;4.204;2023-07-31T14:28:30;17.80;99.90
15717;DHT22;7960;50.908;4.204;2023-07-31T14:30:58;17.80;99.90
15717;DHT22;7960;50.908;4.204;2023-07-31T14:33:25;17.80;99.90
15717;DHT22;7960;50.908;4.204;2023-07-31T14:35:51;17.80;99.90
15717;DHT22;7960;50.908;4.204;2023-07-31T14:38:20;17.80;99.90
15717;DHT22;7960;50.908;4.204;2023-07-31T14:40:47;17.80;99.90
15717;DHT22;7960;50.908;4.204;2023-07-31T14:43:14;17.80;99.90
15717;DHT22;7960;50.908;4.204;2023-07-31T14:45:41;17.70;99.90
15717;DHT22;7960;50.908;4.204;2023-07-31T14:48:08;17.80;99.90
15717;DHT22;7960;50.908;4.204;2023-07-31T14:50:34;17.70;99.90
15717;DHT22;7960;50.908;4.204;2023-07-31T14:53:01;17.70;99.90
15717;DHT22;7960;50.908;4.204;2023-07-31T14:55:29;17.70;99.90
15717;DHT22;7960;50.908;4.204;2023-07-31T14:57:56;17.60;99.90
15717;DHT22;7960;50.908;4.204;2023-07-31T15:00:23;17.60;99.90
15717;DHT22;7960;50.908;4.204;2023-07-31T15:02:52;17.60;99.90
15717;DHT22;7960;50.908;4.204;2023-07-31T15:05:18;17.60;99.90
15717;DHT22;7960;50.908;4.204;2023-07-31T15:07:45;17.60;99.90
15717;DHT22;7960;50.908;4.204;2023-07-31T15:10:12;17.60;99.90
15717;DHT22;7960;50.908;4.204;2023-07-31T15:12:42;17.60;99.90
15717;DHT22;7960;50.908;4.204;2023-07-31T15:15:09;17.60;99.90
15717;DHT22;7960;50.908;4.204;2023-07-31T15:17:36;17.60;99.90
15717;DHT22;7960;50.908;4.204;2023-07-31T15:20:03;17.60;99.90
15717;DHT22;7960;50.908;4.204;2023-07-31T15:22:31;17.70;99.90
15717;DHT22;7960;50.908;4.204;2023-07-31T15:24:58;17.70;99.90
15717;DHT22;7960;50.908;4.204;2023-07-31T15:27:25;17.70;99.90
15717;DHT22;7960;50.908;4.204;2023-07-31T15:29:53;17.70;99.90
15717;DHT22;7960;50.908;4.204;2023-07-31T15:32:21;17.70;99.90
15717;DHT22;7960;50.908;4.204;2023-07-31T15:34:49;17.70;99.90
15717;DHT22;7960;50.908;4.204;2023-07-31T15:37:15;17.70;99.90
15717;DHT22;7960;50.908;4.204;2023-07-31T15:39:43;17.70;99.90
15717;DHT22;7960;50.908;4.204;2023-07-31T15:42:10;17.70;99.90
15717;DHT22;7960;50.908;4.204;2023-07-31T15:44:36;17.70;99.90
15717;DHT22;7960;50.908;4.204;2023-07-31T15:47:06;17.70;99.90
15717;DHT22;7960;50.908;4.204;2023-07-31T15:49:32;17.70;99.90